Time;durP1;ratioP1;P1;durP2;ratioP2;P2;SDS_P1;SDS_P2;PMS_P1;PMS_P2;Temp;Humidity;BMP_temperature;BMP_pressure;BME280_temperature;BME280_humidity;BME280_pressure;Samples;Min_cycle;Max_cycle;Signal;HPM_P1;HPM_P2
2022/09/05 00:01:34;;;;;;;3.20;0.73;;;;;;;16.10;100.00;100857.13;5043292;28;20114;-62
2022/09/05 00:04:21;;;;;;;2.20;0.90;;;;;;;15.86;100.00;100848.88;5040885;28;20107;-55
2022/09/05 00:07:16;;;;;;;5.82;1.38;;;;;;;15.76;100.00;100842.38;5037416;28;20074;-57
2022/09/05 00:10:05;;;;;;;6.88;1.23;;;;;;;15.66;100.00;100882.91;5036789;28;20040;-59
2022/09/05 00:12:32;;;;;;;1.77;0.77;;;;;;;15.54;100.00;100871.25;5051824;28;20067;-54
2022/09/05 00:15:16;;;;;;;1.85;0.93;;;;;;;15.47;100.00;100861.44;5038113;28;20036;-55
2022/09/05 00:18:19;;;;;;;4.47;1.35;;;;;;;15.44;100.00;100840.50;5041252;28;20033;-56
2022/09/05 00:20:53;;;;;;;3.60;0.98;;;;;;;15.37;100.00;100823.69;5036942;28;20041;-56
2022/09/05 00:23:21;;;;;;;5.82;1.92;;;;;;;15.32;100.00;100812.81;5035470;28;20076;-52
2022/09/05 00:25:52;;;;;;;6.25;0.95;;;;;;;15.32;100.00;100812.00;5037911;28;20025;-57
2022/09/05 00:28:27;;;;;;;2.53;0.73;;;;;;;15.30;100.00;100790.81;5038954;28;20378;-56
2022/09/05 00:31:15;;;;;;;4.15;0.60;;;;;;;15.31;100.00;100797.81;5034462;28;20120;-54
2022/09/05 00:34:01;;;;;;;2.95;1.80;;;;;;;15.26;100.00;100800.31;5043932;28;20033;-55
2022/09/05 00:36:44;;;;;;;2.20;1.05;;;;;;;15.23;100.00;100822.09;5044948;28;20487;-56
2022/09/05 00:39:25;;;;;;;2.22;1.38;;;;;;;15.24;100.00;100818.41;5053325;28;20370;-56
2022/09/05 00:41:53;;;;;;;6.43;0.77;;;;;;;15.21;100.00;100816.97;5048268;28;20033;-54
2022/09/05 00:44:23;;;;;;;6.15;2.15;;;;;;;15.18;100.00;100837.94;5039680;28;20049;-58
2022/09/05 00:47:17;;;;;;;0.65;0.43;;;;;;;15.16;100.00;100840.03;5048478;28;20030;-58
2022/09/05 00:49:48;;;;;;;6.25;1.70;;;;;;;15.14;100.00;100828.72;5038771;28;20104;-59
2022/09/05 00:52:14;;;;;;;;;;;;;;;15.13;100.00;100824.44;5051620;28;20574;-53
2022/09/05 00:54:57;;;;;;;1.27;0.90;;;;;;;15.10;100.00;100835.50;5040599;28;20007;-58
2022/09/05 00:57:46;;;;;;;1.75;0.65;;;;;;;15.09;100.00;100841.91;5041830;28;20035;-52
2022/09/05 01:00:23;;;;;;;3.55;0.98;;;;;;;15.08;100.00;100840.28;5045832;28;20028;-55
2022/09/05 01:03:01;;;;;;;4.68;0.90;;;;;;;15.11;100.00;100834.50;5036400;28;20548;-57
2022/09/05 01:06:00;;;;;;;3.13;1.60;;;;;;;15.08;100.00;100824.25;5038358;28;20163;-57
2022/09/05 01:08:44;;;;;;;2.35;1.02;;;;;;;15.03;100.00;100817.69;5036606;28;20033;-58
2022/09/05 01:11:26;;;;;;;1.27;0.55;;;;;;;14.97;100.00;100807.84;5031651;28;20033;-56
2022/09/05 01:14:20;;;;;;;4.75;1.35;;;;;;;14.93;100.00;100809.31;5042966;28;20490;-57
2022/09/05 01:16:59;;;;;;;3.92;0.95;;;;;;;14.88;100.00;100810.97;5042207;28;20033;-56
2022/09/05 01:19:58;;;;;;;0.70;0.40;;;;;;;14.83;100.00;100809.75;5036433;28;20078;-57
2022/09/05 01:22:41;;;;;;;1.77;0.70;;;;;;;14.81;100.00;100800.31;5033167;28;20033;-52
2022/09/05 01:25:06;;;;;;;1.38;0.52;;;;;;;14.75;100.00;100801.16;5040836;28;20037;-53
2022/09/05 01:27:57;;;;;;;5.75;0.88;;;;;;;14.65;100.00;100782.09;5036649;28;20444;-55
2022/09/05 01:30:30;;;;;;;3.28;0.73;;;;;;;14.55;100.00;100766.53;5033567;28;20128;-53
2022/09/05 01:33:10;;;;;;;1.85;1.40;;;;;;;14.48;100.00;100761.19;5040717;28;20037;-54
2022/09/05 01:36:19;;;;;;;1.98;0.80;;;;;;;14.47;100.00;100758.72;5038710;28;20030;-57
2022/09/05 01:38:56;;;;;;;0.98;0.77;;;;;;;14.45;100.00;100748.25;5033026;28;20071;-57
2022/09/05 01:41:59;;;;;;;1.60;0.88;;;;;;;14.46;100.00;100731.22;5031465;28;20037;-52
2022/09/05 01:44:54;;;;;;;1.20;1.10;;;;;;;14.44;100.00;100724.47;5041488;28;20021;-57
2022/09/05 01:47:25;;;;;;;1.08;0.50;;;;;;;14.45;100.00;100718.09;5035290;28;20053;-54
2022/09/05 01:50:12;;;;;;;1.98;0.43;;;;;;;14.47;100.00;100690.16;5033481;28;20036;-54
2022/09/05 01:53:15;;;;;;;2.65;0.70;;;;;;;14.50;100.00;100689.75;5035226;28;20557;-56
2022/09/05 01:56:09;;;;;;;5.15;0.70;;;;;;;14.52;100.00;100692.22;5037406;28;20421;-54
2022/09/05 01:58:57;;;;;;;1.88;0.38;;;;;;;14.55;100.00;100692.63;5043817;28;20040;-53
2022/09/05 02:01:22;;;;;;;3.45;2.25;;;;;;;14.60;100.00;100702.66;5034724;28;20079;-56
2022/09/05 02:04:07;;;;;;;2.15;0.90;;;;;;;14.62;100.00;100705.94;5038984;28;20096;-59
2022/09/05 02:06:55;;;;;;;3.40;0.60;;;;;;;14.64;100.00;100705.72;5039418;28;20040;-58
2022/09/05 02:09:36;;;;;;;1.83;1.30;;;;;;;14.60;100.00;100716.81;5039212;28;20054;-55
2022/09/05 02:12:21;;;;;;;0.85;0.63;;;;;;;14.56;100.00;100718.28;5036791;28;20057;-58
2022/09/05 02:15:05;;;;;;;5.43;0.60;;;;;;;14.54;100.00;100727.53;5035068;28;20056;-53
2022/09/05 02:17:39;;;;;;;2.08;0.68;;;;;;;14.50;100.00;100736.94;5034593;28;20040;-54
2022/09/05 02:20:13;;;;;;;2.75;1.15;;;;;;;14.49;100.00;100749.47;5039003;28;20033;-58
2022/09/05 02:23:23;;;;;;;2.03;0.73;;;;;;;14.47;100.00;100753.38;5042290;28;20045;-55
2022/09/05 02:25:57;;;;;;;3.08;0.55;;;;;;;14.37;100.00;100770.63;5032413;28;20210;-56
2022/09/05 02:28:46;;;;;;;1.42;1.30;;;;;;;14.32;100.00;100785.63;5043116;28;20021;-58
2022/09/05 02:31:38;;;;;;;1.17;1.08;;;;;;;14.27;100.00;100791.59;5030273;28;20033;-57
2022/09/05 02:34:28;;;;;;;0.65;0.65;;;;;;;14.19;100.00;100813.94;5032374;28;20141;-55
2022/09/05 02:37:04;;;;;;;0.90;0.80;;;;;;;14.17;100.00;100821.34;5040408;28;20044;-54
2022/09/05 02:39:37;;;;;;;3.22;1.27;;;;;;;14.17;100.00;100840.03;5032179;28;20136;-54
2022/09/05 02:42:15;;;;;;;4.53;1.00;;;;;;;14.18;100.00;100840.84;5033607;28;20042;-56
2022/09/05 02:45:23;;;;;;;3.67;1.15;;;;;;;14.14;100.00;100850.25;5039329;28;20036;-57
2022/09/05 02:48:20;;;;;;;1.30;1.10;;;;;;;14.05;100.00;100830.19;5036145;28;20053;-55
2022/09/05 02:50:59;;;;;;;0.90;0.65;;;;;;;13.97;100.00;100833.88;5035572;28;20037;-55
2022/09/05 02:53:27;;;;;;;2.42;0.98;;;;;;;13.90;100.00;100833.03;5034253;28;20026;-57
2022/09/05 02:56:31;;;;;;;1.02;0.93;;;;;;;13.81;100.00;100824.44;5033434;28;20025;-56
2022/09/05 02:59:21;;;;;;;1.58;1.40;;;;;;;13.69;100.00;100820.72;5029222;28;20045;-58
2022/09/05 03:02:14;;;;;;;2.42;0.68;;;;;;;13.55;100.00;100830.53;5034911;28;20132;-51
2022/09/05 03:04:49;;;;;;;2.80;2.53;;;;;;;13.46;100.00;100826.41;5037991;28;20029;-56
2022/09/05 03:07:45;;;;;;;2.45;0.85;;;;;;;13.40;100.00;100833.38;5037598;28;20040;-56
2022/09/05 03:10:34;;;;;;;2.58;0.63;;;;;;;13.30;100.00;100828.44;5044933;28;20033;-58
2022/09/05 03:13:36;;;;;;;1.73;1.05;;;;;;;13.26;100.00;100829.00;5037113;28;20486;-56
2022/09/05 03:16:04;;;;;;;;;;;;;;;13.16;100.00;100840.00;5039539;28;20044;-58
2022/09/05 03:19:11;;;;;;;3.47;0.82;;;;;;;13.16;100.00;100826.69;5041897;28;19920;-57
2022/09/05 03:22:02;;;;;;;2.38;0.77;;;;;;;13.09;100.00;100837.34;5044683;28;20486;-55
2022/09/05 03:25:04;;;;;;;1.70;1.03;;;;;;;13.04;100.00;100844.28;5034663;28;20037;-57
2022/09/05 03:27:42;;;;;;;1.83;0.52;;;;;;;12.97;100.00;100840.75;5041948;28;20270;-58
2022/09/05 03:30:14;;;;;;;1.98;1.13;;;;;;;12.91;100.00;100836.22;5045963;28;20029;-58
2022/09/05 03:33:06;;;;;;;1.20;1.10;;;;;;;12.82;100.00;100835.56;5039366;28;20045;-57
2022/09/05 03:35:50;;;;;;;3.35;1.33;;;;;;;12.78;100.00;100834.34;5039714;28;20069;-58
2022/09/05 03:38:45;;;;;;;5.75;2.28;;;;;;;12.70;100.00;100837.13;5045279;28;20043;-53
2022/09/05 03:41:37;;;;;;;1.58;1.08;;;;;;;12.71;100.00;100838.78;5037036;28;20068;-54
2022/09/05 03:44:33;;;;;;;1.50;1.05;;;;;;;12.63;100.00;100837.09;5044712;28;20037;-54
2022/09/05 03:47:17;;;;;;;1.00;1.00;;;;;;;12.55;100.00;100845.25;5038166;28;20051;-56
2022/09/05 03:50:01;;;;;;;2.47;0.90;;;;;;;12.50;100.00;100851.16;5044976;28;20061;-57
2022/09/05 03:52:51;;;;;;;0.68;0.68;;;;;;;12.41;100.00;100850.44;5036471;28;20500;-54
2022/09/05 03:55:51;;;;;;;3.10;1.73;;;;;;;12.36;100.00;100847.56;5038758;28;20391;-55
2022/09/05 03:58:37;;;;;;;9.48;1.95;;;;;;;12.27;100.00;100842.59;5046225;28;20029;-56
2022/09/05 04:01:10;;;;;;;1.90;0.57;;;;;;;12.22;100.00;100848.47;5040103;28;20524;-58
2022/09/05 04:03:47;;;;;;;4.43;0.60;;;;;;;12.14;100.00;100851.28;5045003;28;20021;-56
2022/09/05 04:06:26;;;;;;;1.48;0.70;;;;;;;12.07;100.00;100850.41;5035470;28;20040;-56
2022/09/05 04:09:44;;;;;;;0.52;0.52;;;;;;;12.02;100.00;100866.09;5042438;28;20037;-57
2022/09/05 04:12:17;;;;;;;0.82;0.82;;;;;;;11.95;100.00;100869.53;5004730;28;20439;-58
2022/09/05 04:14:52;;;;;;;2.08;0.70;;;;;;;11.92;100.00;100872.53;5040459;28;20033;-59
2022/09/05 04:17:48;;;;;;;3.00;0.68;;;;;;;11.87;100.00;100869.63;5040406;28;20367;-56
2022/09/05 04:20:30;;;;;;;2.42;0.88;;;;;;;11.85;100.00;100868.16;5045856;28;20415;-58
2022/09/05 04:23:08;;;;;;;;;;;;;;;11.82;100.00;100866.69;5045290;28;20029;-58
2022/09/05 04:26:00;;;;;;;1.95;0.63;;;;;;;11.84;100.00;100871.81;5040488;28;19924;-56
2022/09/05 04:28:51;;;;;;;2.80;0.50;;;;;;;11.76;100.00;100873.59;5039327;28;20267;-55
2022/09/05 04:31:35;;;;;;;3.00;0.73;;;;;;;11.66;100.00;100872.25;5039512;28;20099;-56
2022/09/05 04:34:33;;;;;;;0.28;0.25;;;;;;;11.62;100.00;100876.31;5038934;28;20105;-51
2022/09/05 04:37:40;;;;;;;4.82;0.30;;;;;;;11.62;100.00;100889.59;5042632;28;20021;-55
2022/09/05 04:40:42;;;;;;;0.30;0.30;;;;;;;11.60;100.00;100878.34;5033784;28;20319;-55
2022/09/05 04:43:17;;;;;;;4.57;0.43;;;;;;;11.54;100.00;100870.09;5042470;28;20049;-56
2022/09/05 04:46:09;;;;;;;2.40;0.50;;;;;;;11.55;100.00;100866.44;5031910;28;20033;-53
2022/09/05 04:48:58;;;;;;;0.25;0.25;;;;;;;11.48;100.00;100862.88;5030235;28;20053;-56
2022/09/05 04:51:42;;;;;;;0.20;0.20;;;;;;;11.55;100.00;100873.59;5036136;28;20076;-54
2022/09/05 04:54:45;;;;;;;1.60;0.25;;;;;;;11.56;100.00;100877.88;5043468;28;20504;-58
2022/09/05 04:57:50;;;;;;;0.77;0.35;;;;;;;11.60;100.00;100883.66;5035240;28;20033;-57
2022/09/05 05:00:25;;;;;;;4.88;0.40;;;;;;;11.53;100.00;100880.91;5033960;28;20033;-55
2022/09/05 05:02:55;;;;;;;1.42;0.32;;;;;;;11.48;100.00;100876.16;5033102;28;20033;-57
2022/09/05 05:05:24;;;;;;;0.77;0.77;;;;;;;11.43;100.00;100878.53;5039165;28;20044;-55
2022/09/05 05:07:56;;;;;;;1.85;0.40;;;;;;;11.43;100.00;100883.03;5043584;28;20021;-56
2022/09/05 05:10:29;;;;;;;0.68;0.13;;;;;;;11.44;100.00;100885.53;5039830;28;20466;-57
2022/09/05 05:13:16;;;;;;;0.28;0.10;;;;;;;11.43;100.00;100889.16;5039823;28;20780;-57
2022/09/05 05:15:59;;;;;;;1.08;0.30;;;;;;;11.42;100.00;100887.53;5036677;28;20037;-56
2022/09/05 05:18:34;;;;;;;0.22;0.22;;;;;;;11.40;100.00;100886.06;5031287;28;20060;-58
2022/09/05 05:21:04;;;;;;;0.82;0.55;;;;;;;11.38;100.00;100901.34;5033981;28;20376;-53
2022/09/05 05:23:40;;;;;;;0.60;0.40;;;;;;;11.33;100.00;100900.09;5034383;28;20025;-54
2022/09/05 05:26:20;;;;;;;0.38;0.35;;;;;;;11.38;100.00;100911.97;5032153;28;20104;-53
2022/09/05 05:29:15;;;;;;;1.33;0.45;;;;;;;11.40;100.00;100920.59;5038587;28;20087;-55
2022/09/05 05:32:01;;;;;;;4.38;0.82;;;;;;;11.43;100.00;100914.91;5039432;28;20462;-54
2022/09/05 05:34:40;;;;;;;2.05;0.65;;;;;;;11.41;100.00;100909.78;5043099;28;20042;-56
2022/09/05 05:37:14;;;;;;;3.70;1.20;;;;;;;11.34;100.00;100907.03;5037626;28;20036;-56
2022/09/05 05:39:45;;;;;;;0.63;0.63;;;;;;;11.32;100.00;100910.88;5030462;28;20529;-56
2022/09/05 05:42:24;;;;;;;0.40;0.40;;;;;;;11.31;100.00;100907.41;5029751;28;20041;-55
2022/09/05 05:44:59;;;;;;;3.65;0.57;;;;;;;11.27;100.00;100910.63;5031869;28;20053;-57
2022/09/05 05:47:42;;;;;;;0.95;0.57;;;;;;;11.22;100.00;100915.66;5043741;28;20029;-58
2022/09/05 05:50:25;;;;;;;0.50;0.25;;;;;;;11.20;100.00;100922.97;5034615;28;20029;-55
2022/09/05 05:53:03;;;;;;;1.58;0.63;;;;;;;11.17;100.00;100926.81;5034636;28;20063;-57
2022/09/05 05:55:43;;;;;;;1.15;0.80;;;;;;;11.20;100.00;100929.09;5029615;28;20025;-59
2022/09/05 05:58:37;;;;;;;1.77;1.67;;;;;;;11.24;100.00;100933.06;5028874;28;20040;-56
2022/09/05 06:01:33;;;;;;;1.35;1.02;;;;;;;11.24;100.00;100941.00;5041466;28;20033;-54
2022/09/05 06:04:34;;;;;;;2.08;1.75;;;;;;;11.19;100.00;100937.28;5034517;28;20474;-57
2022/09/05 06:06:59;;;;;;;0.70;0.70;;;;;;;11.14;100.00;100930.66;5034927;28;20032;-54
2022/09/05 06:09:59;;;;;;;1.13;0.90;;;;;;;11.11;100.00;100931.03;5035662;28;20033;-56
2022/09/05 06:12:30;;;;;;;2.40;0.32;;;;;;;11.06;100.00;100936.06;5040980;28;20044;-57
2022/09/05 06:15:24;;;;;;;0.38;0.38;;;;;;;11.06;100.00;100937.91;5036130;28;20029;-58
2022/09/05 06:18:13;;;;;;;0.60;0.60;;;;;;;11.13;100.00;100939.66;5036862;28;20405;-59
2022/09/05 06:21:17;;;;;;;2.63;0.77;;;;;;;11.24;100.00;100953.47;5042661;28;20219;-57
2022/09/05 06:23:49;;;;;;;1.30;1.20;;;;;;;11.28;100.00;100954.72;5037716;28;20039;-58
2022/09/05 06:26:20;;;;;;;0.88;0.35;;;;;;;11.28;100.00;100960.03;5039436;28;20120;-55
2022/09/05 06:29:14;;;;;;;1.02;0.90;;;;;;;11.30;100.00;100960.69;5040334;28;20029;-56
2022/09/05 06:32:03;;;;;;;1.90;1.13;;;;;;;11.30;100.00;100968.66;5033700;28;20037;-54
2022/09/05 06:34:51;;;;;;;1.05;1.05;;;;;;;11.30;100.00;100969.47;5044825;28;20619;-56
2022/09/05 06:37:58;;;;;;;8.50;1.00;;;;;;;11.31;100.00;100975.63;5031212;28;20041;-54
2022/09/05 06:40:45;;;;;;;3.22;0.68;;;;;;;11.36;100.00;100975.91;5038525;28;20123;-55
2022/09/05 06:43:30;;;;;;;0.80;0.40;;;;;;;11.46;100.00;100979.09;5031361;28;20128;-55
2022/09/05 06:46:15;;;;;;;0.75;0.50;;;;;;;11.49;100.00;100977.91;5029198;28;20094;-55
2022/09/05 06:48:58;;;;;;;1.08;0.88;;;;;;;11.57;100.00;100969.84;5027999;28;20158;-58
2022/09/05 06:51:40;;;;;;;0.73;0.73;;;;;;;11.60;100.00;100971.28;5025103;28;20076;-56
2022/09/05 06:54:19;;;;;;;1.85;0.55;;;;;;;11.65;100.00;100980.34;5034051;28;20021;-55
2022/09/05 06:56:58;;;;;;;1.00;0.90;;;;;;;11.66;100.00;100981.16;5037963;28;20214;-55
2022/09/05 07:00:05;;;;;;;0.88;0.88;;;;;;;11.73;100.00;100992.69;5035865;28;20028;-58
2022/09/05 07:02:51;;;;;;;0.98;0.63;;;;;;;11.87;100.00;100993.69;5011045;28;20439;-53
2022/09/05 07:05:35;;;;;;;0.73;0.73;;;;;;;11.99;100.00;101006.31;5031956;28;20631;-53
2022/09/05 07:08:29;;;;;;;1.10;0.90;;;;;;;12.12;100.00;101008.28;5040598;28;20025;-55
2022/09/05 07:11:06;;;;;;;0.63;0.63;;;;;;;12.22;100.00;101010.66;5025236;28;20105;-55
2022/09/05 07:13:53;;;;;;;2.03;0.52;;;;;;;12.33;100.00;101023.44;5031677;28;20086;-54
2022/09/05 07:16:49;;;;;;;1.02;0.80;;;;;;;12.42;100.00;101022.31;5021174;28;20075;-53
2022/09/05 07:19:29;;;;;;;0.65;0.65;;;;;;;12.47;100.00;101018.25;5010787;28;20025;-57
2022/09/05 07:22:03;;;;;;;0.32;0.32;;;;;;;12.58;100.00;101025.72;5031543;28;20037;-55
2022/09/05 07:24:35;;;;;;;0.57;0.57;;;;;;;12.72;100.00;101011.50;5028295;28;20028;-56
2022/09/05 07:27:05;;;;;;;0.90;0.90;;;;;;;12.90;100.00;101015.56;5027084;28;20037;-54
2022/09/05 07:29:39;;;;;;;0.82;0.82;;;;;;;13.11;100.00;101018.16;5025643;28;20040;-58
2022/09/05 07:32:08;;;;;;;2.65;0.68;;;;;;;13.27;100.00;101027.75;5035836;28;20379;-54
2022/09/05 07:34:36;;;;;;;0.60;0.60;;;;;;;13.39;100.00;101034.13;5032960;28;20017;-59
2022/09/05 07:37:23;;;;;;;2.80;1.00;;;;;;;13.45;100.00;101027.19;5030790;28;20021;-55
2022/09/05 07:39:48;;;;;;;3.08;1.13;;;;;;;13.58;100.00;101027.28;5033306;28;20470;-54
2022/09/05 07:42:21;;;;;;;1.27;0.75;;;;;;;13.85;100.00;101027.41;5037248;28;20036;-58
2022/09/05 07:45:03;;;;;;;1.20;1.13;;;;;;;14.02;100.00;101025.19;5030850;28;20061;-58
2022/09/05 07:47:33;;;;;;;;;;;;;;;14.27;100.00;101030.81;5033931;28;20070;-60
2022/09/05 07:50:04;;;;;;;2.22;1.02;;;;;;;14.52;100.00;101029.22;5027631;28;20542;-57
2022/09/05 07:52:36;;;;;;;3.15;1.50;;;;;;;14.79;100.00;101027.44;5014239;28;20033;-60
2022/09/05 07:55:15;;;;;;;4.97;0.98;;;;;;;15.13;100.00;101036.25;5040130;28;20500;-61
2022/09/05 07:57:44;;;;;;;5.15;1.10;;;;;;;15.29;100.00;101043.00;5044936;28;20094;-59
2022/09/05 08:00:20;;;;;;;8.90;1.48;;;;;;;15.41;100.00;101056.50;5032149;28;20402;-60
2022/09/05 08:02:46;;;;;;;4.90;1.92;;;;;;;15.40;100.00;101053.03;5039368;28;20044;-58
2022/09/05 08:05:21;;;;;;;4.85;1.38;;;;;;;15.39;100.00;101048.72;5040862;28;20444;-61
2022/09/05 08:08:00;;;;;;;6.05;1.30;;;;;;;15.42;100.00;101045.63;5037070;28;20029;-60
2022/09/05 08:10:30;;;;;;;5.93;1.27;;;;;;;15.47;100.00;101045.81;5040955;28;20550;-61
2022/09/05 08:13:12;;;;;;;8.60;2.97;;;;;;;15.57;100.00;101052.59;5035672;28;20060;-59
2022/09/05 08:15:46;;;;;;;4.10;2.15;;;;;;;15.66;100.00;101048.66;5039148;28;20021;-59
2022/09/05 08:18:14;;;;;;;8.88;2.22;;;;;;;15.70;100.00;101058.75;5039497;28;20032;-59
2022/09/05 08:20:50;;;;;;;5.43;1.65;;;;;;;15.82;100.00;101056.22;5030219;28;20021;-59
2022/09/05 08:23:46;;;;;;;4.00;0.70;;;;;;;15.94;100.00;101053.72;5035187;28;20037;-59
2022/09/05 08:26:27;;;;;;;3.85;0.90;;;;;;;16.07;100.00;101063.53;5043498;28;20091;-59
2022/09/05 08:29:09;;;;;;;3.80;1.73;;;;;;;16.23;100.00;101060.34;5041498;28;20024;-59
2022/09/05 08:31:45;;;;;;;3.25;0.88;;;;;;;16.48;100.00;101062.28;5035183;28;20048;-57
2022/09/05 08:34:28;;;;;;;2.67;1.15;;;;;;;16.74;100.00;101054.06;5040815;28;20037;-59
2022/09/05 08:36:56;;;;;;;3.03;0.70;;;;;;;16.92;100.00;101057.88;5027916;28;20029;-58
2022/09/05 08:39:27;;;;;;;3.58;0.82;;;;;;;17.08;100.00;101060.00;5039941;28;20483;-58
2022/09/05 08:42:04;;;;;;;6.70;1.60;;;;;;;17.20;100.00;101054.75;5037658;28;20044;-58
2022/09/05 08:44:46;;;;;;;3.72;0.85;;;;;;;17.31;100.00;101056.69;5039181;28;20033;-58
2022/09/05 08:47:33;;;;;;;3.05;0.73;;;;;;;17.38;100.00;101052.09;5041792;28;20211;-59
2022/09/05 08:50:01;;;;;;;8.18;1.10;;;;;;;17.46;100.00;101052.84;5040051;28;20111;-59
2022/09/05 08:52:32;;;;;;;5.45;2.00;;;;;;;17.53;100.00;101059.78;5031288;28;20106;-57
2022/09/05 08:55:18;;;;;;;8.20;1.55;;;;;;;17.50;100.00;101064.72;5035052;28;20036;-60
2022/09/05 08:57:44;;;;;;;6.25;1.73;;;;;;;17.62;100.00;101053.06;5040150;28;20032;-60
2022/09/05 09:00:13;;;;;;;4.72;0.90;;;;;;;17.72;100.00;101044.47;5036354;28;20082;-60
2022/09/05 09:02:55;;;;;;;2.92;0.98;;;;;;;17.93;100.00;101045.91;5039371;28;20490;-59
2022/09/05 09:05:43;;;;;;;3.65;0.57;;;;;;;18.15;100.00;101040.03;5037478;28;20064;-59
2022/09/05 09:08:19;;;;;;;2.40;0.50;;;;;;;18.25;100.00;101026.91;5035410;28;20041;-60
2022/09/05 09:11:09;;;;;;;1.58;0.73;;;;;;;18.29;100.00;101030.78;5041983;28;20036;-59
2022/09/05 09:13:54;;;;;;;8.88;2.08;;;;;;;18.32;100.00;101011.53;5035944;28;20053;-59
2022/09/05 09:16:30;;;;;;;3.42;1.35;;;;;;;18.49;100.00;101000.94;5033088;28;20580;-57
2022/09/05 09:18:55;;;;;;;4.90;1.38;;;;;;;18.67;100.00;101002.72;5029936;28;20068;-58
2022/09/05 09:21:50;;;;;;;4.10;1.17;;;;;;;18.86;100.00;101012.34;5034934;28;20112;-58
2022/09/05 09:24:46;;;;;;;4.63;1.02;;;;;;;18.83;100.00;100983.25;5022772;28;20540;-58
2022/09/05 09:27:41;;;;;;;4.50;0.60;;;;;;;18.70;100.00;100973.53;5037739;28;20045;-56
2022/09/05 09:30:08;;;;;;;7.47;1.30;;;;;;;18.59;100.00;100970.84;5035468;28;20046;-58
2022/09/05 09:32:45;;;;;;;6.22;1.10;;;;;;;18.52;100.00;100979.81;5039392;28;20024;-57
2022/09/05 09:35:39;;;;;;;4.13;0.73;;;;;;;18.56;100.00;100979.34;5035659;28;21468;-59
2022/09/05 09:38:13;;;;;;;22.80;2.22;;;;;;;18.53;100.00;100977.94;5033918;28;20118;-58
2022/09/05 09:40:47;;;;;;;4.35;1.00;;;;;;;18.53;100.00;100976.09;5041326;28;20032;-57
2022/09/05 09:43:26;;;;;;;2.75;1.40;;;;;;;18.59;100.00;100973.53;5033616;28;20494;-57
2022/09/05 09:46:14;;;;;;;8.65;2.10;;;;;;;18.73;100.00;100975.75;5041567;28;20539;-58
2022/09/05 09:49:02;;;;;;;3.03;0.70;;;;;;;18.87;100.00;100976.38;5037630;28;20045;-58
2022/09/05 09:51:39;;;;;;;5.28;1.55;;;;;;;19.09;100.00;100979.28;5034849;28;20029;-59
2022/09/05 09:54:16;;;;;;;6.25;0.98;;;;;;;19.17;100.00;100967.34;5038828;28;20020;-53
2022/09/05 09:57:04;;;;;;;6.97;2.05;;;;;;;19.12;100.00;100969.91;5039827;28;20533;-58
2022/09/05 10:00:06;;;;;;;6.22;2.63;;;;;;;19.06;100.00;100974.38;5036618;28;20025;-57
2022/09/05 10:02:40;;;;;;;10.02;1.75;;;;;;;18.93;100.00;100970.06;5039585;28;20040;-56
2022/09/05 10:05:25;;;;;;;4.82;0.70;;;;;;;18.89;100.00;100982.31;5037743;28;20036;-57
2022/09/05 10:07:53;;;;;;;6.95;1.13;;;;;;;19.01;100.00;100979.63;5031859;28;20361;-59
2022/09/05 10:10:37;;;;;;;2.95;0.63;;;;;;;19.36;100.00;100974.22;5041338;28;20066;-62
2022/09/05 10:13:21;;;;;;;3.90;1.23;;;;;;;19.69;100.00;100961.16;5033823;28;20057;-60
2022/09/05 10:16:28;;;;;;;5.75;1.77;;;;;;;19.95;100.00;100943.59;5041639;28;20041;-59
2022/09/05 10:19:36;;;;;;;8.80;0.82;;;;;;;20.21;100.00;100934.94;5037916;28;20528;-59
2022/09/05 10:22:30;;;;;;;6.45;0.43;;;;;;;20.32;100.00;100924.34;5037190;28;20397;-59
2022/09/05 10:25:12;;;;;;;3.83;0.55;;;;;;;20.46;100.00;100920.22;5033577;28;20057;-59
2022/09/05 10:27:59;;;;;;;4.68;1.00;;;;;;;20.60;100.00;100913.50;5040600;28;20029;-59
2022/09/05 10:30:39;;;;;;;2.10;0.38;;;;;;;20.74;100.00;100915.81;5034985;28;20078;-59
2022/09/05 10:33:11;;;;;;;6.90;0.80;;;;;;;20.76;100.00;100908.31;5039389;28;20051;-56
2022/09/05 10:35:42;;;;;;;8.10;1.23;;;;;;;20.73;100.00;100914.19;5037526;28;20041;-61
2022/09/05 10:38:12;;;;;;;2.17;0.30;;;;;;;20.75;100.00;100903.97;5038598;28;20075;-58
2022/09/05 10:40:43;;;;;;;0.98;0.40;;;;;;;21.05;100.00;100906.28;5035069;28;20175;-60
2022/09/05 10:43:19;;;;;;;2.50;0.95;;;;;;;21.31;100.00;100907.41;5037019;28;20120;-59
2022/09/05 10:46:00;;;;;;;3.53;1.15;;;;;;;21.32;100.00;100907.16;5037476;28;20061;-62
2022/09/05 10:48:50;;;;;;;2.72;0.50;;;;;;;21.21;100.00;100885.69;5038075;28;20033;-60
2022/09/05 10:51:30;;;;;;;6.88;1.90;;;;;;;21.26;100.00;100893.84;5037912;28;20041;-52
2022/09/05 10:54:30;;;;;;;3.80;1.02;;;;;;;21.11;100.00;100897.97;5034723;28;20029;-60
2022/09/05 10:57:10;;;;;;;0.80;0.70;;;;;;;21.06;100.00;100891.72;5035189;28;20751;-60
2022/09/05 10:59:55;;;;;;;0.45;0.38;;;;;;;20.96;100.00;100896.97;5034076;28;20037;-60
2022/09/05 11:02:23;;;;;;;2.40;0.25;;;;;;;20.85;100.00;100893.34;5036658;28;20033;-59
2022/09/05 11:05:07;;;;;;;1.83;0.32;;;;;;;20.85;100.00;100888.75;5037282;28;20032;-61
2022/09/05 11:07:51;;;;;;;0.57;0.40;;;;;;;20.94;100.00;100885.66;5034867;28;20061;-58
2022/09/05 11:10:23;;;;;;;4.28;0.38;;;;;;;21.40;100.00;100887.03;5039911;28;20415;-61
2022/09/05 11:12:51;;;;;;;;;;;;;;;21.97;100.00;100878.41;5034541;28;20051;-60
2022/09/05 11:15:16;;;;;;;3.47;1.15;;;;;;;22.40;100.00;100878.47;5037102;28;19931;-58
2022/09/05 11:17:59;;;;;;;4.88;0.20;;;;;;;22.68;100.00;100866.50;5033154;28;20533;-59
2022/09/05 11:21:02;;;;;;;1.85;0.32;;;;;;;22.84;100.00;100856.56;5036379;28;20056;-59
2022/09/05 11:23:39;;;;;;;1.83;0.57;;;;;;;22.76;100.00;100860.56;5025254;28;20025;-58
2022/09/05 11:26:14;;;;;;;5.18;0.40;;;;;;;22.77;100.00;100851.41;5038688;28;20456;-61
2022/09/05 11:28:54;;;;;;;0.50;0.10;;;;;;;22.70;100.00;100848.13;5036245;28;20029;-59
2022/09/05 11:31:28;;;;;;;1.90;0.32;;;;;;;22.41;100.00;100859.31;5036773;28;20460;-60
2022/09/05 11:34:37;;;;;;;0.93;0.30;;;;;;;21.92;100.00;100862.16;5031652;28;20044;-59
2022/09/05 11:37:25;;;;;;;1.98;0.32;;;;;;;21.73;100.00;100864.41;5033158;28;20191;-60
2022/09/05 11:40:15;;;;;;;2.05;1.17;;;;;;;21.91;100.00;100863.22;5034990;28;20025;-57
2022/09/05 11:42:49;;;;;;;2.42;0.57;;;;;;;22.30;100.00;100854.09;5033252;28;20983;-60
2022/09/05 11:45:38;;;;;;;1.58;0.52;;;;;;;22.42;100.00;100860.13;5033333;28;20037;-60
2022/09/05 11:48:55;;;;;;;3.25;0.60;;;;;;;22.64;100.00;100865.41;5033976;28;20029;-57
2022/09/05 11:52:14;;;;;;;1.70;0.28;;;;;;;22.70;100.00;100874.34;5032521;28;21511;-60
2022/09/05 11:54:45;;;;;;;0.80;0.28;;;;;;;22.61;100.00;100877.56;4967391;28;20033;-64
2022/09/05 11:57:18;;;;;;;;;;;;;;;22.51;100.00;100868.53;5021947;28;20048;-58
2022/09/05 12:00:09;;;;;;;7.35;1.20;;;;;;;22.38;100.00;100870.66;5031323;28;19978;-62
2022/09/05 12:02:44;;;;;;;0.68;0.20;;;;;;;22.11;100.00;100864.47;5031883;28;20045;-58
2022/09/05 12:05:24;;;;;;;0.82;0.25;;;;;;;21.76;100.00;100873.88;5032727;28;20395;-58
2022/09/05 12:08:17;;;;;;;1.55;0.17;;;;;;;21.62;100.00;100875.38;5035948;28;20040;-56
2022/09/05 12:11:00;;;;;;;1.33;0.22;;;;;;;21.52;100.00;100876.91;4997714;28;20124;-59
2022/09/05 12:13:52;;;;;;;1.67;0.32;;;;;;;21.51;100.00;100883.38;4959240;28;20048;-60
2022/09/05 12:16:28;;;;;;;2.22;0.40;;;;;;;21.41;100.00;100879.75;5041654;28;20083;-61
2022/09/05 12:19:12;;;;;;;3.22;1.58;;;;;;;21.37;100.00;100894.78;5036237;28;20973;-58
2022/09/05 12:22:16;;;;;;;3.45;1.90;;;;;;;21.37;100.00;100890.19;5036536;28;20040;-59
2022/09/05 12:25:04;;;;;;;4.63;1.17;;;;;;;21.40;100.00;100889.75;5031285;28;20474;-60
2022/09/05 12:27:33;;;;;;;4.03;0.63;;;;;;;21.69;100.00;100886.78;5034665;28;20643;-57
2022/09/05 12:30:04;;;;;;;2.05;1.75;;;;;;;22.15;100.00;100879.06;5029704;28;20123;-55
2022/09/05 12:32:32;;;;;;;3.72;0.50;;;;;;;22.28;100.00;100883.25;5036268;28;20386;-61